Time;durP1;ratioP1;P1;durP2;ratioP2;P2;SDS_P1;SDS_P2;PMS_P1;PMS_P2;Temp;Humidity;BMP_temperature;BMP_pressure;BME280_temperature;BME280_humidity;BME280_pressure;Samples;Min_cycle;Max_cycle;Signal;HPM_P1;HPM_P2
2022/04/24 00:01:32;;;;;;;2.13;1.10;;;;;;;19.36;53.88;100006.56;5013027;28;20042;-74
2022/04/24 00:04:00;;;;;;;2.53;1.10;;;;;;;19.36;53.97;100005.72;5013961;28;20056;-74
2022/04/24 00:06:28;;;;;;;2.83;1.40;;;;;;;19.36;53.95;100005.72;5014168;28;20395;-74
2022/04/24 00:08:55;;;;;;;1.30;0.93;;;;;;;19.35;53.99;100001.34;5013467;28;20045;-74
2022/04/24 00:11:23;;;;;;;1.73;1.10;;;;;;;19.35;53.95;100007.56;5014276;28;20086;-73
2022/04/24 00:13:50;;;;;;;2.50;1.20;;;;;;;19.35;53.88;100004.03;5014405;28;20042;-74
2022/04/24 00:16:17;;;;;;;2.00;1.30;;;;;;;19.35;53.90;99994.13;5013453;28;20050;-74
2022/04/24 00:18:45;;;;;;;3.25;1.05;;;;;;;19.35;53.95;99993.28;5014180;28;20050;-74
2022/04/24 00:21:14;;;;;;;2.45;1.30;;;;;;;19.34;53.86;100000.50;5013224;28;20042;-74
2022/04/24 00:23:43;;;;;;;3.28;1.20;;;;;;;19.34;53.87;99991.63;5014605;28;20057;-74
2022/04/24 00:26:10;;;;;;;2.47;1.30;;;;;;;19.34;53.79;99992.44;5013830;28;20045;-74
2022/04/24 00:28:38;;;;;;;2.25;1.15;;;;;;;19.35;53.85;99986.09;5013360;28;20046;-74
2022/04/24 00:31:05;;;;;;;1.98;1.10;;;;;;;19.35;53.85;99977.19;5014186;28;20053;-74
2022/04/24 00:33:32;;;;;;;2.35;1.05;;;;;;;19.34;53.68;99978.19;5013116;28;20050;-74
2022/04/24 00:36:00;;;;;;;4.45;1.27;;;;;;;19.33;53.80;99966.63;5013299;28;20053;-74
2022/04/24 00:38:27;;;;;;;3.30;1.23;;;;;;;19.34;53.78;99967.47;5013679;28;20045;-74
2022/04/24 00:40:56;;;;;;;1.58;1.00;;;;;;;19.34;53.81;99962.09;5013949;28;20410;-74
2022/04/24 00:43:24;;;;;;;2.90;1.30;;;;;;;19.33;53.55;99950.53;5014012;28;20065;-74
2022/04/24 00:46:14;;;;;;;3.00;1.13;;;;;;;19.33;53.53;99955.03;5013621;28;20046;-74
2022/04/24 00:48:43;;;;;;;2.20;1.30;;;;;;;19.33;53.75;99952.38;5012854;28;20046;-73
2022/04/24 00:51:11;;;;;;;3.42;1.13;;;;;;;19.32;53.58;99947.97;5028748;28;20054;-74
2022/04/24 00:53:39;;;;;;;3.35;1.00;;;;;;;19.32;53.59;99947.97;5013638;28;20046;-74
2022/04/24 00:56:07;;;;;;;2.42;1.20;;;;;;;19.32;53.54;99948.81;5013961;28;20042;-74
2022/04/24 00:58:35;;;;;;;4.13;1.58;;;;;;;19.32;53.58;99946.13;5014121;28;20046;-74
2022/04/24 01:01:02;;;;;;;1.83;1.08;;;;;;;19.32;53.53;99937.22;5013871;28;20041;-74
2022/04/24 01:03:30;;;;;;;2.42;1.15;;;;;;;19.32;53.43;99939.91;5013621;28;20049;-74
2022/04/24 01:05:58;;;;;;;2.03;1.10;;;;;;;19.31;53.63;99944.44;5013527;28;20524;-74
2022/04/24 01:08:25;;;;;;;2.53;1.30;;;;;;;19.31;53.54;99955.19;5013988;28;20049;-74
2022/04/24 01:10:53;;;;;;;1.98;1.23;;;;;;;19.32;53.51;99954.16;5013674;28;20478;-74
2022/04/24 01:13:20;;;;;;;4.03;1.20;;;;;;;19.32;53.52;99954.16;5013995;28;20042;-74
2022/04/24 01:15:47;;;;;;;2.47;1.40;;;;;;;19.31;53.53;99948.97;5013884;28;20393;-73
2022/04/24 01:18:15;;;;;;;2.20;1.27;;;;;;;19.32;53.55;99947.97;5012787;28;20069;-74
2022/04/24 01:20:43;;;;;;;2.75;1.25;;;;;;;19.31;53.45;99943.59;5013259;28;20041;-74
2022/04/24 01:23:10;;;;;;;1.80;1.00;;;;;;;19.31;53.48;99951.66;5013229;28;20061;-74
2022/04/24 01:25:39;;;;;;;2.30;1.27;;;;;;;19.31;53.51;99963.22;5012396;28;20045;-74
2022/04/24 01:28:09;;;;;;;3.28;1.15;;;;;;;19.30;53.54;99966.91;5012723;28;20042;-74
2022/04/24 01:30:37;;;;;;;2.95;1.30;;;;;;;19.30;53.35;99977.66;5013503;28;20041;-74
2022/04/24 01:33:06;;;;;;;2.80;1.30;;;;;;;19.30;53.37;99976.81;5011255;28;20493;-74
2022/04/24 01:35:33;;;;;;;1.90;1.20;;;;;;;19.31;53.42;99965.06;5012567;28;20097;-74
2022/04/24 01:38:01;;;;;;;1.95;1.30;;;;;;;19.30;53.32;99969.59;5013881;28;20044;-73
2022/04/24 01:40:29;;;;;;;2.22;1.40;;;;;;;19.31;53.31;99962.38;5011675;28;20093;-73
2022/04/24 01:42:56;;;;;;;2.03;1.23;;;;;;;19.30;53.25;99958.03;5012751;28;20745;-74
2022/04/24 01:45:23;;;;;;;2.30;1.33;;;;;;;19.29;53.15;99954.50;5013085;28;20045;-74
2022/04/24 01:47:51;;;;;;;3.00;1.38;;;;;;;19.29;53.23;99954.50;5011309;28;20054;-74
2022/04/24 01:50:18;;;;;;;2.60;1.20;;;;;;;19.29;53.23;99953.66;5011860;28;20049;-74
2022/04/24 01:52:45;;;;;;;3.00;1.10;;;;;;;19.29;53.21;99954.50;5013029;28;20049;-74
2022/04/24 01:55:13;;;;;;;2.20;1.10;;;;;;;19.29;53.27;99942.94;5012817;28;20482;-73
2022/04/24 01:57:42;;;;;;;1.90;1.30;;;;;;;19.29;53.15;99926.84;5012847;28;20049;-74
2022/04/24 02:00:11;;;;;;;2.10;1.10;;;;;;;19.28;53.13;99923.28;5012425;28;20054;-74
2022/04/24 02:02:40;;;;;;;1.65;1.00;;;;;;;19.27;53.14;99919.75;5015322;28;20046;-74
2022/04/24 02:05:08;;;;;;;2.72;1.23;;;;;;;19.27;53.07;99932.31;5016463;28;20046;-74
2022/04/24 02:07:35;;;;;;;3.17;1.10;;;;;;;19.29;53.17;99948.28;5016575;28;20038;-74
2022/04/24 02:10:04;;;;;;;1.80;1.20;;;;;;;19.27;52.93;99941.22;5016206;28;20406;-74
2022/04/24 02:12:31;;;;;;;2.95;1.00;;;;;;;19.27;52.43;99940.38;5015407;28;20045;-74
2022/04/24 02:14:59;;;;;;;2.90;1.00;;;;;;;19.27;52.71;99943.91;5015075;28;20060;-74
2022/04/24 02:17:26;;;;;;;1.60;0.88;;;;;;;19.26;52.73;99955.63;5016846;28;20054;-74
2022/04/24 02:19:53;;;;;;;2.05;1.17;;;;;;;19.26;52.72;99941.38;5016434;28;20405;-74
2022/04/24 02:22:21;;;;;;;1.95;1.05;;;;;;;19.26;52.66;99949.44;5016105;28;20490;-74
2022/04/24 02:24:48;;;;;;;1.95;1.30;;;;;;;19.27;52.72;99953.78;5015311;28;20050;-74
2022/04/24 02:27:15;;;;;;;1.85;0.82;;;;;;;19.26;52.75;99944.06;5016137;28;20049;-74
2022/04/24 02:29:43;;;;;;;2.35;1.00;;;;;;;19.27;52.58;99930.50;5016040;28;20589;-74
2022/04/24 02:32:10;;;;;;;2.03;1.02;;;;;;;19.25;52.71;99943.22;5015322;28;20056;-74
2022/04/24 02:34:37;;;;;;;1.63;1.00;;;;;;;19.24;52.74;99941.56;5015827;28;20072;-74
2022/04/24 02:37:10;;;;;;;;;;;;;;;19.25;52.72;99942.38;5016314;28;20042;-73
2022/04/24 02:39:37;;;;;;;1.52;0.90;;;;;;;19.25;52.65;99934.34;5016128;28;19926;-74
2022/04/24 02:42:05;;;;;;;2.20;1.20;;;;;;;19.24;52.74;99930.81;5016322;28;20429;-74
2022/04/24 02:44:32;;;;;;;1.67;0.90;;;;;;;19.24;52.59;99933.50;5014878;28;20506;-74
2022/04/24 02:47:00;;;;;;;2.00;1.10;;;;;;;19.24;52.72;99933.50;5015752;28;20053;-74
2022/04/24 02:49:27;;;;;;;2.78;1.10;;;;;;;19.25;52.45;99950.44;5015127;28;20509;-74
2022/04/24 02:51:54;;;;;;;2.03;1.00;;;;;;;19.24;52.53;99959.47;5009865;28;20038;-74
2022/04/24 02:54:22;;;;;;;1.80;1.00;;;;;;;19.24;52.63;99971.06;5014576;28;20402;-74
2022/04/24 02:56:49;;;;;;;2.22;1.50;;;;;;;19.23;52.41;99961.31;5015305;28;20046;-74
2022/04/24 02:59:16;;;;;;;1.30;0.80;;;;;;;19.24;52.48;99941.56;5015220;28;20046;-74
2022/04/24 03:01:45;;;;;;;1.63;0.90;;;;;;;19.24;52.24;99927.25;5014861;28;20045;-74
2022/04/24 03:04:13;;;;;;;2.03;1.00;;;;;;;19.23;52.45;99926.41;5014534;28;20038;-74
2022/04/24 03:06:40;;;;;;;2.72;1.00;;;;;;;19.24;52.34;99919.22;5014778;28;20389;-75
2022/04/24 03:09:08;;;;;;;1.70;1.02;;;;;;;19.23;52.41;99915.69;5014482;28;20042;-74
2022/04/24 03:11:35;;;;;;;1.35;0.80;;;;;;;19.23;52.46;99913.00;5014270;28;20057;-74
2022/04/24 03:14:03;;;;;;;1.10;0.73;;;;;;;19.24;52.48;99905.78;5014000;28;20386;-74
2022/04/24 03:16:30;;;;;;;1.38;0.80;;;;;;;19.24;52.48;99905.78;5015431;28;20046;-75
2022/04/24 03:18:58;;;;;;;2.65;1.33;;;;;;;19.25;52.56;99902.13;5013085;28;20065;-74
2022/04/24 03:21:25;;;;;;;1.30;0.80;;;;;;;19.24;52.37;99906.66;5015131;28;20073;-74
2022/04/24 03:23:52;;;;;;;3.30;1.15;;;;;;;19.24;52.25;99914.72;5014360;28;20046;-75
2022/04/24 03:26:19;;;;;;;1.73;1.23;;;;;;;19.25;52.42;99915.56;5014481;28;20064;-74
2022/04/24 03:28:47;;;;;;;2.45;1.00;;;;;;;19.24;52.62;99903.13;5013254;28;20064;-75
2022/04/24 03:31:14;;;;;;;1.85;1.00;;;;;;;19.24;52.37;99900.44;5014357;28;20053;-75
2022/04/24 03:33:42;;;;;;;2.40;1.08;;;;;;;19.23;52.27;99898.75;5014817;28;20042;-75
2022/04/24 03:36:09;;;;;;;4.90;1.27;;;;;;;19.23;52.29;99898.75;5014392;28;20046;-75
2022/04/24 03:38:36;;;;;;;1.83;0.82;;;;;;;19.24;52.22;99889.69;5015143;28;20049;-75
2022/04/24 03:41:04;;;;;;;1.17;0.70;;;;;;;19.23;52.12;99888.84;5015824;28;20421;-75
2022/04/24 03:43:31;;;;;;;2.17;1.10;;;;;;;19.23;52.17;99879.97;5015225;28;20053;-75
2022/04/24 03:45:58;;;;;;;3.20;1.45;;;;;;;19.23;52.14;99872.75;5014317;28;20049;-74
2022/04/24 03:48:25;;;;;;;2.75;1.13;;;;;;;19.22;52.24;99860.34;5016147;28;20053;-75
2022/04/24 03:50:53;;;;;;;1.90;1.10;;;;;;;19.22;52.31;99863.03;5014874;28;20057;-74
2022/04/24 03:53:20;;;;;;;3.50;0.90;;;;;;;19.23;52.24;99866.56;5014422;28;20045;-74
2022/04/24 03:55:47;;;;;;;2.85;1.02;;;;;;;19.22;52.10;99859.50;5006917;28;20414;-74
2022/04/24 03:58:15;;;;;;;1.77;1.17;;;;;;;19.22;52.11;99887.19;4995327;28;20486;-74
2022/04/24 04:00:43;;;;;;;2.10;1.00;;;;;;;19.21;52.09;99884.66;4994392;28;20057;-74
2022/04/24 04:03:10;;;;;;;5.75;1.00;;;;;;;19.21;52.04;99876.59;4994280;28;20064;-74
2022/04/24 04:05:38;;;;;;;4.22;1.50;;;;;;;19.21;52.13;99877.44;4994672;28;20057;-74
2022/04/24 04:08:05;;;;;;;2.00;0.88;;;;;;;19.20;52.04;99881.13;4995232;28;20054;-74
2022/04/24 04:10:33;;;;;;;2.40;0.90;;;;;;;19.19;51.76;99884.78;4994538;28;20050;-74
2022/04/24 04:13:05;;;;;;;2.08;0.90;;;;;;;19.20;51.97;99872.22;4993032;28;20387;-74
2022/04/24 04:15:32;;;;;;;2.67;0.93;;;;;;;19.20;52.17;99878.47;4993501;28;20073;-74
2022/04/24 04:18:00;;;;;;;1.45;0.75;;;;;;;19.20;51.95;99880.25;4994319;28;20050;-75
2022/04/24 04:20:27;;;;;;;2.17;1.13;;;;;;;19.19;51.76;99876.75;4995537;28;20057;-74
2022/04/24 04:22:55;;;;;;;2.35;1.02;;;;;;;19.20;51.85;99883.81;5012965;28;20065;-74
2022/04/24 04:25:26;;;;;;;2.08;1.10;;;;;;;19.19;51.82;99879.44;5013952;28;20476;-74
2022/04/24 04:27:53;;;;;;;1.45;0.88;;;;;;;19.19;52.06;99894.69;5013430;28;20057;-74
2022/04/24 04:30:21;;;;;;;2.15;0.95;;;;;;;19.19;52.05;99900.88;5014621;28;20057;-74
2022/04/24 04:32:50;;;;;;;1.98;1.00;;;;;;;19.20;51.88;99907.97;5012939;28;20050;-74
2022/04/24 04:35:22;;;;;;;1.48;0.80;;;;;;;19.19;51.84;99906.25;5013841;28;20409;-74
2022/04/24 04:37:50;;;;;;;1.27;0.80;;;;;;;19.19;52.19;99902.75;5013752;28;20057;-74
2022/04/24 04:40:20;;;;;;;2.00;0.90;;;;;;;19.19;52.03;99905.41;5011824;28;20058;-74
2022/04/24 04:42:48;;;;;;;1.95;1.00;;;;;;;19.19;51.88;99905.41;5013284;28;20046;-74
2022/04/24 04:45:16;;;;;;;1.58;1.05;;;;;;;19.19;51.85;99916.16;5013648;28;20046;-74
2022/04/24 04:47:47;;;;;;;2.30;0.82;;;;;;;19.18;51.82;99926.03;5013470;28;20493;-74
2022/04/24 04:50:14;;;;;;;1.35;0.80;;;;;;;19.18;51.86;99942.16;5013382;28;20054;-74
2022/04/24 04:52:41;;;;;;;2.58;0.90;;;;;;;19.18;51.83;99957.41;5012281;28;20046;-74
2022/04/24 04:55:09;;;;;;;2.53;1.00;;;;;;;19.18;51.62;99968.97;5012352;28;20049;-74
2022/04/24 04:57:37;;;;;;;2.30;1.10;;;;;;;19.17;51.53;99974.50;5013091;28;20046;-74
2022/04/24 05:00:05;;;;;;;3.67;1.17;;;;;;;19.17;51.52;99966.47;5012817;28;20405;-74
2022/04/24 05:02:39;;;;;;;1.95;1.00;;;;;;;19.16;51.62;99962.06;5013147;28;20037;-74
2022/04/24 05:05:08;;;;;;;1.77;1.00;;;;;;;19.16;51.62;99962.94;5013438;28;20386;-74
2022/04/24 05:07:37;;;;;;;1.58;0.90;;;;;;;19.16;51.87;99962.94;5013655;28;20053;-74
2022/04/24 05:10:05;;;;;;;1.88;1.20;;;;;;;19.16;51.79;99956.69;5013890;28;20057;-74
2022/04/24 05:12:33;;;;;;;1.92;0.88;;;;;;;19.16;51.64;99954.00;5013190;28;20121;-75
2022/04/24 05:15:03;;;;;;;2.30;1.02;;;;;;;19.15;51.60;99942.44;5013390;28;20382;-74
2022/04/24 05:17:30;;;;;;;1.45;0.88;;;;;;;19.16;51.52;99937.91;5014295;28;20050;-74
2022/04/24 05:19:57;;;;;;;2.17;1.15;;;;;;;19.15;51.48;99946.97;5011990;28;20524;-74
2022/04/24 05:22:25;;;;;;;2.92;0.95;;;;;;;19.14;51.40;99959.53;5012418;28;20053;-74
2022/04/24 05:24:53;;;;;;;5.85;1.20;;;;;;;19.14;51.80;99956.84;5011595;28;20073;-74
2022/04/24 05:27:20;;;;;;;2.85;1.13;;;;;;;19.15;51.80;99952.34;5013810;28;20046;-74
2022/04/24 05:29:48;;;;;;;1.75;1.10;;;;;;;19.13;51.85;99949.81;5011809;28;20426;-75
2022/04/24 05:32:15;;;;;;;1.90;1.00;;;;;;;19.15;51.61;99960.38;5012545;28;20046;-75
2022/04/24 05:34:43;;;;;;;1.70;1.02;;;;;;;19.15;51.72;99963.06;5015390;28;20042;-74
2022/04/24 05:37:11;;;;;;;2.28;1.05;;;;;;;19.15;51.91;99946.97;5016941;28;20049;-75
2022/04/24 05:39:38;;;;;;;1.85;1.05;;;;;;;19.15;51.74;99936.25;5016608;28;20045;-75
2022/04/24 05:42:06;;;;;;;2.03;1.02;;;;;;;19.14;51.70;99930.03;5015133;28;20402;-74
2022/04/24 05:44:33;;;;;;;3.45;1.20;;;;;;;19.14;51.95;99924.66;5016817;28;20053;-74
2022/04/24 05:47:01;;;;;;;3.00;1.42;;;;;;;19.14;51.69;99918.47;5016779;28;20053;-74
2022/04/24 05:49:28;;;;;;;2.40;1.00;;;;;;;19.14;51.86;99919.31;5017227;28;20250;-74
2022/04/24 05:51:55;;;;;;;1.70;0.93;;;;;;;19.14;52.04;99935.41;5016267;28;20053;-74
2022/04/24 05:54:23;;;;;;;2.10;1.00;;;;;;;19.14;51.98;99948.81;5014967;28;20042;-74
2022/04/24 05:56:50;;;;;;;1.90;0.90;;;;;;;19.14;51.82;99956.84;5015009;28;20053;-74
2022/04/24 05:59:18;;;;;;;1.70;0.82;;;;;;;19.15;52.00;99944.28;5016446;28;20070;-74
2022/04/24 06:01:45;;;;;;;2.17;1.00;;;;;;;19.14;51.81;99951.50;5015143;28;20054;-74
2022/04/24 06:04:12;;;;;;;1.77;1.08;;;;;;;19.14;51.79;99962.22;5017059;28;20500;-73
2022/04/24 06:06:40;;;;;;;1.83;1.00;;;;;;;19.15;51.86;99969.28;5016126;28;20049;-74
2022/04/24 06:09:07;;;;;;;1.98;0.90;;;;;;;19.15;51.92;99974.63;5015954;28;20046;-74
2022/04/24 06:11:34;;;;;;;2.30;1.05;;;;;;;19.15;51.90;99979.16;5016151;28;20057;-74
2022/04/24 06:14:02;;;;;;;2.15;1.20;;;;;;;19.15;51.99;99985.38;5015177;28;20050;-74
2022/04/24 06:16:29;;;;;;;1.45;0.82;;;;;;;19.14;52.06;99980.16;5015188;28;20065;-74
2022/04/24 06:18:57;;;;;;;2.58;1.13;;;;;;;19.15;51.91;99995.25;5015978;28;20049;-74
2022/04/24 06:21:25;;;;;;;1.83;0.90;;;;;;;19.15;52.13;100001.47;5015288;28;20041;-74
2022/04/24 06:23:52;;;;;;;2.00;1.05;;;;;;;19.15;51.94;99997.94;5015955;28;20054;-73
2022/04/24 06:26:19;;;;;;;2.17;0.80;;;;;;;19.15;51.92;100006.84;5015309;28;20054;-73
2022/04/24 06:28:47;;;;;;;2.08;0.85;;;;;;;19.14;52.24;100005.16;5015502;28;20049;-73
2022/04/24 06:31:14;;;;;;;1.20;0.90;;;;;;;19.14;52.11;100002.47;5016236;28;20421;-73
2022/04/24 06:33:41;;;;;;;2.70;0.90;;;;;;;19.14;52.11;99998.94;5015708;28;20050;-73
2022/04/24 06:36:09;;;;;;;1.77;1.08;;;;;;;19.14;52.13;100002.47;5015182;28;20050;-73
2022/04/24 06:38:36;;;;;;;2.45;1.30;;;;;;;19.15;52.12;100014.03;5015543;28;20053;-73
2022/04/24 06:41:03;;;;;;;3.33;1.00;;;;;;;19.14;52.08;100021.25;5014127;28;20512;-73
2022/04/24 06:43:31;;;;;;;2.10;1.05;;;;;;;19.15;52.35;100020.25;5015553;28;20057;-73
2022/04/24 06:45:58;;;;;;;2.47;1.00;;;;;;;19.15;52.20;100017.56;5014361;28;20038;-73
2022/04/24 06:48:25;;;;;;;1.83;1.10;;;;;;;19.15;52.15;100024.78;5015327;28;20046;-74
2022/04/24 06:50:53;;;;;;;2.05;1.00;;;;;;;19.14;52.15;100021.25;5014005;28;20041;-73
2022/04/24 06:53:20;;;;;;;2.25;1.13;;;;;;;19.15;52.26;100032.81;5014716;28;20494;-74
2022/04/24 06:55:50;;;;;;;3.05;1.13;;;;;;;19.15;52.27;100027.47;5012728;28;20046;-74
2022/04/24 06:58:19;;;;;;;1.23;0.73;;;;;;;19.14;52.23;100023.94;5014866;28;20053;-74
2022/04/24 07:00:47;;;;;;;2.20;1.10;;;;;;;19.14;52.19;100020.41;5015874;28;20049;-75
2022/04/24 07:03:35;;;;;;;1.92;1.02;;;;;;;19.14;52.41;100031.97;5013802;28;20060;-74
2022/04/24 07:06:03;;;;;;;2.45;0.95;;;;;;;19.15;52.25;100027.47;5015448;28;20053;-74
2022/04/24 07:08:32;;;;;;;2.42;0.85;;;;;;;19.14;52.33;100025.78;5015107;28;20053;-74
2022/04/24 07:10:59;;;;;;;3.65;0.90;;;;;;;19.14;52.26;100023.09;5014814;28;20401;-74
2022/04/24 07:13:26;;;;;;;1.75;0.90;;;;;;;19.14;52.26;100017.72;5015022;28;20041;-74
2022/04/24 07:15:54;;;;;;;1.60;0.90;;;;;;;19.15;52.24;100030.97;5014714;28;20038;-74
2022/04/24 07:18:22;;;;;;;1.98;0.90;;;;;;;19.13;52.20;100032.97;5015057;28;20053;-74
2022/04/24 07:20:49;;;;;;;2.53;1.20;;;;;;;19.14;52.13;100042.72;5003298;28;20493;-74
2022/04/24 07:23:17;;;;;;;2.20;1.00;;;;;;;19.12;52.32;100044.72;5013986;28;20147;-74
2022/04/24 07:25:44;;;;;;;2.15;0.88;;;;;;;19.14;52.33;100058.81;5012904;28;20050;-74
2022/04/24 07:28:18;;;;;;;2.13;1.25;;;;;;;19.14;52.36;100068.72;5014405;28;20046;-74
2022/04/24 07:30:46;;;;;;;1.45;0.82;;;;;;;19.14;52.21;100074.91;5015156;28;20046;-74
2022/04/24 07:33:14;;;;;;;1.80;0.88;;;;;;;19.14;52.05;100088.31;5015107;28;20053;-74
2022/04/24 07:35:42;;;;;;;1.90;1.10;;;;;;;19.15;52.38;100075.75;5014125;28;20038;-74
2022/04/24 07:38:10;;;;;;;2.72;0.80;;;;;;;19.13;52.37;100059.81;5015136;28;20057;-74
2022/04/24 07:40:41;;;;;;;1.90;1.00;;;;;;;19.13;52.18;100059.81;5014685;28;20052;-74
2022/04/24 07:43:10;;;;;;;2.13;1.00;;;;;;;19.05;52.12;100048.16;5014666;28;20049;-74
2022/04/24 07:45:40;;;;;;;4.15;1.20;;;;;;;18.93;52.24;100060.91;5013202;28;20053;-74
2022/04/24 07:48:09;;;;;;;3.85;1.50;;;;;;;18.82;52.36;100066.44;5014265;28;20045;-74
2022/04/24 07:50:39;;;;;;;3.33;1.33;;;;;;;18.70;52.73;100060.41;5014043;28;20057;-74
2022/04/24 07:53:07;;;;;;;2.30;1.08;;;;;;;18.69;52.80;100061.38;5014281;28;20501;-74
2022/04/24 07:55:35;;;;;;;3.30;1.00;;;;;;;18.65;52.73;100071.53;5013659;28;20034;-75
2022/04/24 07:58:03;;;;;;;2.20;0.93;;;;;;;18.64;52.84;100082.44;5012461;28;20493;-75
2022/04/24 08:00:32;;;;;;;1.77;0.85;;;;;;;18.59;52.77;100090.88;5014629;28;20393;-74
2022/04/24 08:03:02;;;;;;;1.80;1.00;;;;;;;18.53;52.93;100097.69;5015631;28;20054;-75
2022/04/24 08:05:30;;;;;;;2.78;0.90;;;;;;;18.51;53.19;100106.84;5015057;28;20041;-75
2022/04/24 08:08:00;;;;;;;4.03;1.42;;;;;;;18.53;53.54;100108.41;5014206;28;20050;-75
2022/04/24 08:10:31;;;;;;;8.95;1.58;;;;;;;18.52;53.54;100117.44;5013356;28;20125;-75
2022/04/24 08:12:59;;;;;;;3.03;0.70;;;;;;;18.53;53.28;100119.13;5014449;28;20045;-75
2022/04/24 08:15:26;;;;;;;4.55;1.02;;;;;;;18.52;52.97;100119.28;5014094;28;20504;-75
2022/04/24 08:17:54;;;;;;;2.20;0.90;;;;;;;18.54;53.18;100128.00;5013314;28;20068;-75
2022/04/24 08:20:21;;;;;;;2.38;0.73;;;;;;;18.57;53.20;100125.03;5014080;28;20046;-75
2022/04/24 08:22:51;;;;;;;5.18;0.85;;;;;;;18.61;53.20;100126.44;4994716;28;20467;-77
2022/04/24 08:25:22;;;;;;;3.70;0.98;;;;;;;18.64;53.22;100123.47;4994199;28;20501;-75
2022/04/24 08:27:51;;;;;;;2.70;1.13;;;;;;;18.68;52.90;100127.56;4994524;28;20046;-75
2022/04/24 08:30:20;;;;;;;3.78;1.15;;;;;;;18.70;52.88;100128.28;4993860;28;20057;-75
2022/04/24 08:32:47;;;;;;;5.35;1.40;;;;;;;18.74;52.68;100139.56;4995461;28;20050;-75
2022/04/24 08:35:17;;;;;;;3.00;0.82;;;;;;;18.75;52.35;100136.72;4999695;28;20054;-75
2022/04/24 08:37:45;;;;;;;4.18;1.20;;;;;;;18.78;52.36;100138.28;4994672;28;20053;-77
2022/04/24 08:40:16;;;;;;;2.83;1.27;;;;;;;18.81;52.29;100155.94;4994776;28;20046;-75
2022/04/24 08:42:45;;;;;;;3.30;1.10;;;;;;;18.81;51.78;100170.19;4995225;28;20050;-76
2022/04/24 08:45:15;;;;;;;5.03;1.10;;;;;;;18.84;52.25;100169.03;4993446;28;20053;-75
2022/04/24 08:47:44;;;;;;;2.95;1.08;;;;;;;18.85;52.05;100185.00;4996976;28;20047;-77
2022/04/24 08:50:12;;;;;;;3.95;1.00;;;;;;;18.87;51.76;100190.22;4997837;28;20065;-75
2022/04/24 08:52:46;;;;;;;4.90;1.08;;;;;;;18.87;51.42;100188.38;4995461;28;20057;-75
2022/04/24 08:55:15;;;;;;;5.10;1.52;;;;;;;18.87;51.43;100192.88;4994706;28;20382;-76
2022/04/24 08:57:42;;;;;;;2.60;1.13;;;;;;;18.87;51.27;100184.84;5007764;28;20050;-75
2022/04/24 09:00:11;;;;;;;2.03;1.00;;;;;;;18.86;51.43;100172.44;5013357;28;20106;-75
2022/04/24 09:02:54;;;;;;;3.65;1.20;;;;;;;18.86;51.54;100161.69;5013377;28;20053;-75
2022/04/24 09:05:22;;;;;;;2.80;1.10;;;;;;;18.86;51.39;100161.69;5012831;28;20441;-75
2022/04/24 09:07:52;;;;;;;3.15;1.23;;;;;;;18.85;51.41;100168.91;5013995;28;20046;-74
2022/04/24 09:10:54;;;;;;;4.07;1.23;;;;;;;18.87;51.72;100168.75;5001955;28;20085;-74
2022/04/24 09:14:14;;;;;;;3.30;1.00;;;;;;;18.86;51.33;100151.81;5017154;28;20486;-74
2022/04/24 09:16:25;;;;;;;1.70;0.90;;;;;;;18.87;51.11;100158.88;5016552;28;20405;-74
2022/04/24 09:18:53;;;;;;;2.08;1.00;;;;;;;18.86;51.07;100161.69;5015968;28;20061;-74
2022/04/24 09:21:20;;;;;;;3.80;1.00;;;;;;;18.87;51.07;100160.72;5011534;28;20046;-74
2022/04/24 09:23:48;;;;;;;3.30;1.17;;;;;;;18.86;51.09;100162.53;5016433;28;20064;-75
2022/04/24 09:26:16;;;;;;;2.17;0.90;;;;;;;18.86;51.12;100167.06;5016981;28;20065;-74
2022/04/24 09:28:44;;;;;;;3.97;1.17;;;;;;;18.87;51.18;100168.75;5031454;28;20524;-74
2022/04/24 09:31:11;;;;;;;4.13;1.77;;;;;;;18.87;51.23;100163.38;5015316;28;20056;-73
2022/04/24 09:33:41;;;;;;;5.47;1.17;;;;;;;18.90;51.98;100166.63;5015446;28;20046;-77
2022/04/24 09:36:09;;;;;;;2.67;1.08;;;;;;;18.93;52.15;100165.50;5016474;28;20390;-75
2022/04/24 09:38:46;;;;;;;7.47;1.60;;;;;;;18.94;52.13;100167.19;5014275;28;20046;-75
2022/04/24 09:41:21;;;;;;;5.45;1.08;;;;;;;18.95;52.01;100158.97;5002052;28;20064;-75
2022/04/24 09:43:49;;;;;;;5.55;1.60;;;;;;;18.96;52.45;100166.06;4998790;28;20494;-72
2022/04/24 09:46:27;;;;;;;6.68;1.17;;;;;;;18.98;52.40;100163.22;5015532;28;20053;-73
2022/04/24 09:49:00;;;;;;;4.10;1.08;;;;;;;19.00;52.07;100161.25;5010478;28;20076;-75
2022/04/24 09:51:28;;;;;;;2.88;1.40;;;;;;;19.00;52.07;100153.22;5009243;28;20046;-73
2022/04/24 09:54:00;;;;;;;4.70;1.25;;;;;;;19.02;52.11;100151.22;5016203;28;20041;-74
2022/04/24 09:56:28;;;;;;;3.30;0.90;;;;;;;19.02;51.64;100143.16;4996214;28;20053;-77
2022/04/24 09:58:57;;;;;;;4.40;1.10;;;;;;;19.02;52.22;100144.00;5011343;28;20049;-75
2022/04/24 10:01:26;;;;;;;3.83;1.10;;;;;;;19.04;52.09;100141.19;5016188;28;20054;-76
2022/04/24 10:03:55;;;;;;;7.50;1.15;;;;;;;19.05;52.34;100142.88;5015789;28;20046;-76
2022/04/24 10:06:23;;;;;;;3.70;0.98;;;;;;;19.07;52.42;100140.88;5015937;28;20049;-75
2022/04/24 10:08:51;;;;;;;3.17;1.15;;;;;;;19.07;52.26;100130.16;5015155;28;20053;-75
2022/04/24 10:11:20;;;;;;;3.65;1.10;;;;;;;19.08;51.92;100133.66;5015611;28;20429;-75
2022/04/24 10:13:50;;;;;;;4.22;1.02;;;;;;;19.07;51.82;100132.81;5016268;28;20409;-74
2022/04/24 10:16:35;;;;;;;3.50;1.20;;;;;;;19.07;51.77;100122.09;5015915;28;20053;-74
2022/04/24 10:19:33;;;;;;;3.13;1.20;;;;;;;19.07;51.73;100110.53;5006300;28;20371;-74
2022/04/24 10:22:11;;;;;;;4.15;1.17;;;;;;;19.06;51.69;100100.78;5026602;28;20057;-74
2022/04/24 10:24:43;;;;;;;3.80;1.45;;;;;;;19.05;51.87;100086.53;5033664;28;20401;-75
2022/04/24 10:27:13;;;;;;;4.05;1.35;;;;;;;19.06;52.12;100082.84;5033006;28;20056;-75
2022/04/24 10:29:52;;;;;;;4.95;1.05;;;;;;;19.07;51.73;100072.97;5033399;28;20049;-74
2022/04/24 10:32:32;;;;;;;3.38;1.15;;;;;;;19.07;51.81;100075.66;5033783;28;20057;-74
2022/04/24 10:35:00;;;;;;;4.15;1.20;;;;;;;19.08;51.72;100091.63;5033108;28;20050;-74
2022/04/24 10:37:32;;;;;;;5.95;1.30;;;;;;;19.08;52.01;100090.75;5033491;28;20509;-76
2022/04/24 10:40:00;;;;;;;3.38;1.10;;;;;;;19.09;51.97;100092.47;5033286;28;20397;-76
2022/04/24 10:42:33;;;;;;;4.78;1.08;;;;;;;19.07;51.89;100097.13;5032815;28;20532;-76
2022/04/24 10:45:14;;;;;;;3.33;1.40;;;;;;;19.08;52.12;100096.13;5033264;28;20528;-74
2022/04/24 10:47:50;;;;;;;4.63;1.10;;;;;;;19.08;52.09;100091.63;5033347;28;20045;-75
2022/04/24 10:50:18;;;;;;;4.32;1.10;;;;;;;19.10;52.11;100086.09;5033111;28;20049;-74
2022/04/24 10:52:48;;;;;;;3.58;1.15;;;;;;;19.10;52.29;100088.78;5033145;28;20064;-73
2022/04/24 10:55:18;;;;;;;2.38;1.17;;;;;;;19.11;52.14;100082.41;5032679;28;20048;-74
2022/04/24 10:57:52;;;;;;;2.70;1.27;;;;;;;19.11;51.95;100071.69;5032528;28;20435;-74
2022/04/24 11:00:22;;;;;;;2.78;1.27;;;;;;;19.11;51.88;100069.84;5011608;28;20045;-73
2022/04/24 11:02:52;;;;;;;3.88;1.60;;;;;;;19.12;52.68;100063.50;5015044;28;20053;-74
2022/04/24 11:05:22;;;;;;;5.30;1.95;;;;;;;19.13;52.86;100067.88;5015047;28;20049;-75
2022/04/24 11:08:04;;;;;;;6.15;1.70;;;;;;;19.15;55.74;100071.22;5030287;28;20045;-75
2022/04/24 11:10:40;;;;;;;2.97;1.90;;;;;;;19.12;53.39;100073.34;5013460;28;20053;-75
2022/04/24 11:13:20;;;;;;;4.80;2.45;;;;;;;19.03;52.29;100056.31;5005983;28;20046;-75
2022/04/24 11:15:50;;;;;;;4.82;3.33;;;;;;;18.99;52.34;100060.28;4995075;28;20046;-74
2022/04/24 11:18:20;;;;;;;5.65;4.78;;;;;;;18.95;52.46;100051.69;4994814;28;20047;-75
2022/04/24 11:20:53;;;;;;;6.70;5.55;;;;;;;18.89;51.21;100044.25;4999321;28;20045;-75
2022/04/24 11:23:24;;;;;;;4.43;4.00;;;;;;;18.83;51.32;100047.50;5012556;28;20057;-74
2022/04/24 11:25:59;;;;;;;6.03;4.40;;;;;;;18.80;52.08;100055.00;5014198;28;20053;-75
2022/04/24 11:28:45;;;;;;;6.00;3.95;;;;;;;18.70;52.20;100055.91;5014257;28;20046;-75
2022/04/24 11:31:21;;;;;;;5.18;3.90;;;;;;;18.68;52.34;100049.81;5014731;28;20065;-75
2022/04/24 11:33:59;;;;;;;5.50;3.92;;;;;;;18.66;51.81;100051.78;5010639;28;20061;-75
2022/04/24 11:36:34;;;;;;;6.53;3.75;;;;;;;18.65;52.03;100043.91;4994317;28;20487;-75
2022/04/24 11:39:07;;;;;;;4.85;3.38;;;;;;;18.61;51.58;100045.19;4998159;28;20049;-74